sensor_id;sensor_type;location;lat;lon;timestamp;temperature;humidity
67722;SHT31;58309;45.292;11.820;2023-07-22T00:00:26;18.66;99.99
67722;SHT31;58309;45.292;11.820;2023-07-22T00:02:52;18.67;99.99
67722;SHT31;58309;45.292;11.820;2023-07-22T00:05:17;18.67;99.99
67722;SHT31;58309;45.292;11.820;2023-07-22T00:07:49;18.67;99.99
67722;SHT31;58309;45.292;11.820;2023-07-22T00:10:15;18.70;99.99
67722;SHT31;58309;45.292;11.820;2023-07-22T00:12:41;18.66;99.99
67722;SHT31;58309;45.292;11.820;2023-07-22T00:15:07;18.66;99.99
67722;SHT31;58309;45.292;11.820;2023-07-22T00:17:32;18.66;99.99
67722;SHT31;58309;45.292;11.820;2023-07-22T00:19:58;18.69;99.99
67722;SHT31;58309;45.292;11.820;2023-07-22T00:22:23;18.70;99.99
67722;SHT31;58309;45.292;11.820;2023-07-22T00:24:51;18.66;99.99
67722;SHT31;58309;45.292;11.820;2023-07-22T00:27:17;18.66;99.99
67722;SHT31;58309;45.292;11.820;2023-07-22T00:29:42;18.62;99.99
67722;SHT31;58309;45.292;11.820;2023-07-22T00:32:08;18.62;99.99
67722;SHT31;58309;45.292;11.820;2023-07-22T00:34:34;18.60;99.99
67722;SHT31;58309;45.292;11.820;2023-07-22T00:36:59;18.59;99.99
67722;SHT31;58309;45.292;11.820;2023-07-22T00:39:25;18.57;99.99
67722;SHT31;58309;45.292;11.820;2023-07-22T00:41:50;18.55;99.99
67722;SHT31;58309;45.292;11.820;2023-07-22T00:44:16;18.65;99.99
67722;SHT31;58309;45.292;11.820;2023-07-22T00:46:41;18.60;99.99
67722;SHT31;58309;45.292;11.820;2023-07-22T00:49:08;18.60;99.99
67722;SHT31;58309;45.292;11.820;2023-07-22T00:51:34;18.62;99.99
67722;SHT31;58309;45.292;11.820;2023-07-22T00:53:59;18.62;99.99
67722;SHT31;58309;45.292;11.820;2023-07-22T00:56:25;18.65;99.99
67722;SHT31;58309;45.292;11.820;2023-07-22T00:58:51;18.65;99.99
67722;SHT31;58309;45.292;11.820;2023-07-22T01:01:17;18.65;99.99
67722;SHT31;58309;45.292;11.820;2023-07-22T01:03:43;18.66;99.99
67722;SHT31;58309;45.292;11.820;2023-07-22T01:06:09;18.73;99.99
67722;SHT31;58309;45.292;11.820;2023-07-22T01:08:35;18.76;99.99
67722;SHT31;58309;45.292;11.820;2023-07-22T01:11:00;18.80;99.99
67722;SHT31;58309;45.292;11.820;2023-07-22T01:13:26;18.87;99.99
67722;SHT31;58309;45.292;11.820;2023-07-22T01:15:52;18.87;99.99
67722;SHT31;58309;45.292;11.820;2023-07-22T01:18:17;18.82;99.99
67722;SHT31;58309;45.292;11.820;2023-07-22T01:20:43;18.82;99.99
67722;SHT31;58309;45.292;11.820;2023-07-22T01:23:10;18.83;99.99
67722;SHT31;58309;45.292;11.820;2023-07-22T01:25:36;18.84;99.99
67722;SHT31;58309;45.292;11.820;2023-07-22T01:28:02;18.80;99.99
67722;SHT31;58309;45.292;11.820;2023-07-22T01:30:27;18.73;99.99
67722;SHT31;58309;45.292;11.820;2023-07-22T01:32:53;18.70;99.99
67722;SHT31;58309;45.292;11.820;2023-07-22T01:35:18;18.69;99.99
67722;SHT31;58309;45.292;11.820;2023-07-22T01:37:44;18.70;99.99
67722;SHT31;58309;45.292;11.820;2023-07-22T01:40:11;18.73;99.99
67722;SHT31;58309;45.292;11.820;2023-07-22T01:42:43;18.72;99.99
67722;SHT31;58309;45.292;11.820;2023-07-22T01:45:09;18.76;99.99
67722;SHT31;58309;45.292;11.820;2023-07-22T01:47:36;18.73;99.99
67722;SHT31;58309;45.292;11.820;2023-07-22T01:50:03;18.79;99.99
67722;SHT31;58309;45.292;11.820;2023-07-22T01:52:28;18.83;99.99
67722;SHT31;58309;45.292;11.820;2023-07-22T01:54:54;18.86;99.99
67722;SHT31;58309;45.292;11.820;2023-07-22T01:57:19;18.96;99.99
67722;SHT31;58309;45.292;11.820;2023-07-22T01:59:45;18.97;99.99
67722;SHT31;58309;45.292;11.820;2023-07-22T02:02:10;19.04;99.99
67722;SHT31;58309;45.292;11.820;2023-07-22T02:04:36;19.06;99.99
67722;SHT31;58309;45.292;11.820;2023-07-22T02:07:01;19.10;99.99
67722;SHT31;58309;45.292;11.820;2023-07-22T02:09:27;19.07;99.99
67722;SHT31;58309;45.292;11.820;2023-07-22T02:11:52;19.07;99.99
67722;SHT31;58309;45.292;11.820;2023-07-22T02:14:19;19.08;99.99
67722;SHT31;58309;45.292;11.820;2023-07-22T02:16:44;19.08;99.99
67722;SHT31;58309;45.292;11.820;2023-07-22T02:19:09;19.07;99.99
67722;SHT31;58309;45.292;11.820;2023-07-22T02:21:35;19.08;99.99
67722;SHT31;58309;45.292;11.820;2023-07-22T02:24:00;19.11;99.99
67722;SHT31;58309;45.292;11.820;2023-07-22T02:26:26;19.23;99.99
67722;SHT31;58309;45.292;11.820;2023-07-22T02:28:51;19.21;99.99
67722;SHT31;58309;45.292;11.820;2023-07-22T02:31:17;19.20;99.99
67722;SHT31;58309;45.292;11.820;2023-07-22T02:33:42;19.15;99.99
67722;SHT31;58309;45.292;11.820;2023-07-22T02:36:08;19.20;99.99
67722;SHT31;58309;45.292;11.820;2023-07-22T02:38:33;19.20;99.99
67722;SHT31;58309;45.292;11.820;2023-07-22T02:41:03;19.23;99.99
67722;SHT31;58309;45.292;11.820;2023-07-22T02:43:31;19.30;99.99
67722;SHT31;58309;45.292;11.820;2023-07-22T02:45:56;19.36;99.99
67722;SHT31;58309;45.292;11.820;2023-07-22T02:48:22;19.43;99.99
67722;SHT31;58309;45.292;11.820;2023-07-22T02:50:48;19.45;99.99
67722;SHT31;58309;45.292;11.820;2023-07-22T02:53:13;19.51;99.99
67722;SHT31;58309;45.292;11.820;2023-07-22T02:55:39;19.52;99.99
67722;SHT31;58309;45.292;11.820;2023-07-22T02:58:04;19.55;99.99
67722;SHT31;58309;45.292;11.820;2023-07-22T03:00:31;19.55;99.99
67722;SHT31;58309;45.292;11.820;2023-07-22T03:02:57;19.58;99.99
67722;SHT31;58309;45.292;11.820;2023-07-22T03:05:29;19.61;99.99
67722;SHT31;58309;45.292;11.820;2023-07-22T03:07:55;19.68;99.99
67722;SHT31;58309;45.292;11.820;2023-07-22T03:10:21;19.74;99.99
67722;SHT31;58309;45.292;11.820;2023-07-22T03:12:46;19.78;99.99
67722;SHT31;58309;45.292;11.820;2023-07-22T03:15:12;19.85;99.99
67722;SHT31;58309;45.292;11.820;2023-07-22T03:17:39;19.89;99.99
67722;SHT31;58309;45.292;11.820;2023-07-22T03:20:07;19.92;99.99
67722;SHT31;58309;45.292;11.820;2023-07-22T03:22:39;19.90;99.99
67722;SHT31;58309;45.292;11.820;2023-07-22T03:25:05;19.95;99.99
67722;SHT31;58309;45.292;11.820;2023-07-22T03:27:33;19.95;99.99
67722;SHT31;58309;45.292;11.820;2023-07-22T03:29:59;19.90;99.99
67722;SHT31;58309;45.292;11.820;2023-07-22T03:32:24;19.92;99.99
67722;SHT31;58309;45.292;11.820;2023-07-22T03:34:49;19.90;99.99
67722;SHT31;58309;45.292;11.820;2023-07-22T03:37:15;19.90;99.99
67722;SHT31;58309;45.292;11.820;2023-07-22T03:39:40;19.93;99.99
67722;SHT31;58309;45.292;11.820;2023-07-22T03:42:06;19.92;99.99
67722;SHT31;58309;45.292;11.820;2023-07-22T03:44:31;19.95;99.99
67722;SHT31;58309;45.292;11.820;2023-07-22T03:46:57;19.92;99.99
67722;SHT31;58309;45.292;11.820;2023-07-22T03:49:22;19.92;99.99
67722;SHT31;58309;45.292;11.820;2023-07-22T03:51:48;19.97;99.99
67722;SHT31;58309;45.292;11.820;2023-07-22T03:54:13;20.03;99.99
67722;SHT31;58309;45.292;11.820;2023-07-22T03:56:40;20.08;99.99
67722;SHT31;58309;45.292;11.820;2023-07-22T03:59:07;20.12;99.99
67722;SHT31;58309;45.292;11.820;2023-07-22T04:01:32;20.17;99.99
67722;SHT31;58309;45.292;11.820;2023-07-22T04:03:58;20.19;99.99
67722;SHT31;58309;45.292;11.820;2023-07-22T04:06:23;20.27;99.99
67722;SHT31;58309;45.292;11.820;2023-07-22T04:08:49;20.30;99.99
67722;SHT31;58309;45.292;11.820;2023-07-22T04:11:14;20.36;99.99
67722;SHT31;58309;45.292;11.820;2023-07-22T04:13:40;20.36;99.99
67722;SHT31;58309;45.292;11.820;2023-07-22T04:16:05;20.39;99.99
67722;SHT31;58309;45.292;11.820;2023-07-22T04:18:30;20.41;99.99
67722;SHT31;58309;45.292;11.820;2023-07-22T04:21:00;20.39;99.99
67722;SHT31;58309;45.292;11.820;2023-07-22T04:23:25;20.43;99.99
67722;SHT31;58309;45.292;11.820;2023-07-22T04:25:51;20.47;99.99
67722;SHT31;58309;45.292;11.820;2023-07-22T04:28:17;20.47;99.99
67722;SHT31;58309;45.292;11.820;2023-07-22T04:30:42;20.50;99.99
67722;SHT31;58309;45.292;11.820;2023-07-22T04:33:08;20.54;99.99
67722;SHT31;58309;45.292;11.820;2023-07-22T04:35:40;20.51;99.99
67722;SHT31;58309;45.292;11.820;2023-07-22T04:38:06;20.53;99.99
67722;SHT31;58309;45.292;11.820;2023-07-22T04:40:31;20.55;99.99
67722;SHT31;58309;45.292;11.820;2023-07-22T04:42:57;20.53;99.93
67722;SHT31;58309;45.292;11.820;2023-07-22T04:45:23;20.53;99.99
67722;SHT31;58309;45.292;11.820;2023-07-22T04:47:51;20.54;99.89
67722;SHT31;58309;45.292;11.820;2023-07-22T04:50:17;20.55;99.60
67722;SHT31;58309;45.292;11.820;2023-07-22T04:52:46;20.53;99.43
67722;SHT31;58309;45.292;11.820;2023-07-22T04:55:12;20.55;99.63
67722;SHT31;58309;45.292;11.820;2023-07-22T04:57:38;20.58;99.30
67722;SHT31;58309;45.292;11.820;2023-07-22T05:00:07;20.61;99.32
67722;SHT31;58309;45.292;11.820;2023-07-22T05:02:39;20.70;99.19
67722;SHT31;58309;45.292;11.820;2023-07-22T05:05:05;20.80;99.39
67722;SHT31;58309;45.292;11.820;2023-07-22T05:07:30;20.87;99.16
67722;SHT31;58309;45.292;11.820;2023-07-22T05:09:56;20.90;98.03
67722;SHT31;58309;45.292;11.820;2023-07-22T05:12:21;20.90;97.17
67722;SHT31;58309;45.292;11.820;2023-07-22T05:14:48;20.90;96.97
67722;SHT31;58309;45.292;11.820;2023-07-22T05:17:14;20.90;97.15
67722;SHT31;58309;45.292;11.820;2023-07-22T05:19:39;20.92;96.55
67722;SHT31;58309;45.292;11.820;2023-07-22T05:22:05;20.88;96.31
67722;SHT31;58309;45.292;11.820;2023-07-22T05:24:30;20.94;96.55
67722;SHT31;58309;45.292;11.820;2023-07-22T05:26:56;20.95;96.34
67722;SHT31;58309;45.292;11.820;2023-07-22T05:29:21;20.99;95.80
67722;SHT31;58309;45.292;11.820;2023-07-22T05:31:47;21.06;96.36
67722;SHT31;58309;45.292;11.820;2023-07-22T05:34:12;21.08;95.16
67722;SHT31;58309;45.292;11.820;2023-07-22T05:36:38;21.11;94.89
67722;SHT31;58309;45.292;11.820;2023-07-22T05:39:03;21.15;94.99
67722;SHT31;58309;45.292;11.820;2023-07-22T05:41:29;21.12;93.87
67722;SHT31;58309;45.292;11.820;2023-07-22T05:43:55;21.15;94.67
67722;SHT31;58309;45.292;11.820;2023-07-22T05:46:20;21.15;94.66
67722;SHT31;58309;45.292;11.820;2023-07-22T05:48:45;21.18;94.15
67722;SHT31;58309;45.292;11.820;2023-07-22T05:51:11;21.18;94.62
67722;SHT31;58309;45.292;11.820;2023-07-22T05:53:36;21.22;94.42
67722;SHT31;58309;45.292;11.820;2023-07-22T05:56:05;21.26;94.08
67722;SHT31;58309;45.292;11.820;2023-07-22T05:58:30;21.28;93.45
67722;SHT31;58309;45.292;11.820;2023-07-22T06:00:56;21.33;94.03
67722;SHT31;58309;45.292;11.820;2023-07-22T06:03:21;21.39;93.69
67722;SHT31;58309;45.292;11.820;2023-07-22T06:05:47;21.46;93.77
67722;SHT31;58309;45.292;11.820;2023-07-22T06:08:13;21.47;92.63
67722;SHT31;58309;45.292;11.820;2023-07-22T06:10:40;21.56;93.24
67722;SHT31;58309;45.292;11.820;2023-07-22T06:13:05;21.72;93.00
67722;SHT31;58309;45.292;11.820;2023-07-22T06:15:31;21.80;92.03
67722;SHT31;58309;45.292;11.820;2023-07-22T06:17:56;21.82;91.15
67722;SHT31;58309;45.292;11.820;2023-07-22T06:20:22;21.93;90.65
67722;SHT31;58309;45.292;11.820;2023-07-22T06:22:47;22.05;90.84
67722;SHT31;58309;45.292;11.820;2023-07-22T06:25:13;22.14;89.23
67722;SHT31;58309;45.292;11.820;2023-07-22T06:27:38;22.28;88.97
67722;SHT31;58309;45.292;11.820;2023-07-22T06:30:04;22.30;87.61
67722;SHT31;58309;45.292;11.820;2023-07-22T06:32:30;22.40;88.79
67722;SHT31;58309;45.292;11.820;2023-07-22T06:34:59;22.47;87.75
67722;SHT31;58309;45.292;11.820;2023-07-22T06:37:25;22.58;87.71
67722;SHT31;58309;45.292;11.820;2023-07-22T06:39:51;22.72;86.99
67722;SHT31;58309;45.292;11.820;2023-07-22T06:42:16;22.91;87.44
67722;SHT31;58309;45.292;11.820;2023-07-22T06:44:43;23.13;86.59
67722;SHT31;58309;45.292;11.820;2023-07-22T06:47:08;23.22;85.86
67722;SHT31;58309;45.292;11.820;2023-07-22T06:49:33;23.42;86.21
67722;SHT31;58309;45.292;11.820;2023-07-22T06:51:59;23.53;85.34
67722;SHT31;58309;45.292;11.820;2023-07-22T06:54:25;23.74;84.57
67722;SHT31;58309;45.292;11.820;2023-07-22T06:56:50;23.84;82.30
67722;SHT31;58309;45.292;11.820;2023-07-22T06:59:16;23.94;83.28
67722;SHT31;58309;45.292;11.820;2023-07-22T07:01:41;24.02;83.20
67722;SHT31;58309;45.292;11.820;2023-07-22T07:04:07;24.01;83.13
67722;SHT31;58309;45.292;11.820;2023-07-22T07:06:32;24.26;81.82
67722;SHT31;58309;45.292;11.820;2023-07-22T07:09:01;24.48;80.31
67722;SHT31;58309;45.292;11.820;2023-07-22T07:11:28;24.72;80.62
67722;SHT31;58309;45.292;11.820;2023-07-22T07:13:53;24.97;80.06
67722;SHT31;58309;45.292;11.820;2023-07-22T07:16:27;25.14;77.57
67722;SHT31;58309;45.292;11.820;2023-07-22T07:18:53;25.15;76.92
67722;SHT31;58309;45.292;11.820;2023-07-22T07:21:19;25.24;76.61
67722;SHT31;58309;45.292;11.820;2023-07-22T07:23:45;24.87;78.17
67722;SHT31;58309;45.292;11.820;2023-07-22T07:26:11;25.01;80.08
67722;SHT31;58309;45.292;11.820;2023-07-22T07:28:37;24.84;79.23
67722;SHT31;58309;45.292;11.820;2023-07-22T07:31:03;25.01;77.24
67722;SHT31;58309;45.292;11.820;2023-07-22T07:33:28;25.17;77.70
67722;SHT31;58309;45.292;11.820;2023-07-22T07:35:54;25.14;76.52
67722;SHT31;58309;45.292;11.820;2023-07-22T07:38:20;25.32;77.43
67722;SHT31;58309;45.292;11.820;2023-07-22T07:40:45;25.45;75.48
67722;SHT31;58309;45.292;11.820;2023-07-22T07:43:11;25.73;76.06
67722;SHT31;58309;45.292;11.820;2023-07-22T07:45:38;25.49;77.15
67722;SHT31;58309;45.292;11.820;2023-07-22T07:48:04;25.58;78.22
67722;SHT31;58309;45.292;11.820;2023-07-22T07:50:30;25.61;76.60
67722;SHT31;58309;45.292;11.820;2023-07-22T07:52:56;25.65;74.58
67722;SHT31;58309;45.292;11.820;2023-07-22T07:55:21;25.75;75.96
67722;SHT31;58309;45.292;11.820;2023-07-22T07:57:47;25.88;75.60
67722;SHT31;58309;45.292;11.820;2023-07-22T08:00:12;25.97;75.27
67722;SHT31;58309;45.292;11.820;2023-07-22T08:02:38;25.90;73.73
67722;SHT31;58309;45.292;11.820;2023-07-22T08:05:04;26.20;74.25
67722;SHT31;58309;45.292;11.820;2023-07-22T08:07:30;26.27;70.75
67722;SHT31;58309;45.292;11.820;2023-07-22T08:09:56;26.22;71.68
67722;SHT31;58309;45.292;11.820;2023-07-22T08:12:23;26.50;71.18
67722;SHT31;58309;45.292;11.820;2023-07-22T08:14:48;27.67;69.18
67722;SHT31;58309;45.292;11.820;2023-07-22T08:17:14;28.27;66.40
67722;SHT31;58309;45.292;11.820;2023-07-22T08:19:39;28.68;63.90
67722;SHT31;58309;45.292;11.820;2023-07-22T08:22:05;29.43;63.71
67722;SHT31;58309;45.292;11.820;2023-07-22T08:24:31;30.33;61.10
67722;SHT31;58309;45.292;11.820;2023-07-22T08:26:57;31.21;58.92
67722;SHT31;58309;45.292;11.820;2023-07-22T08:29:24;32.29;56.73
67722;SHT31;58309;45.292;11.820;2023-07-22T08:31:49;32.43;56.40
67722;SHT31;58309;45.292;11.820;2023-07-22T08:34:15;32.51;55.35
67722;SHT31;58309;45.292;11.820;2023-07-22T08:36:41;31.55;55.54
67722;SHT31;58309;45.292;11.820;2023-07-22T08:39:06;31.94;55.69
67722;SHT31;58309;45.292;11.820;2023-07-22T08:41:32;31.75;56.49
67722;SHT31;58309;45.292;11.820;2023-07-22T08:44:00;33.50;52.83
67722;SHT31;58309;45.292;11.820;2023-07-22T08:46:28;34.30;51.44
67722;SHT31;58309;45.292;11.820;2023-07-22T08:48:59;33.86;52.35
67722;SHT31;58309;45.292;11.820;2023-07-22T08:51:25;35.13;49.50
67722;SHT31;58309;45.292;11.820;2023-07-22T08:53:53;35.40;49.99
67722;SHT31;58309;45.292;11.820;2023-07-22T08:56:23;34.30;51.61
67722;SHT31;58309;45.292;11.820;2023-07-22T08:58:51;34.30;50.72
67722;SHT31;58309;45.292;11.820;2023-07-22T09:01:17;34.21;50.17
67722;SHT31;58309;45.292;11.820;2023-07-22T09:03:43;34.13;50.67
67722;SHT31;58309;45.292;11.820;2023-07-22T09:06:10;35.54;46.77
67722;SHT31;58309;45.292;11.820;2023-07-22T09:08:36;36.53;46.22
67722;SHT31;58309;45.292;11.820;2023-07-22T09:11:01;36.55;45.71
67722;SHT31;58309;45.292;11.820;2023-07-22T09:13:28;35.42;45.24
67722;SHT31;58309;45.292;11.820;2023-07-22T09:15:54;35.59;47.10
67722;SHT31;58309;45.292;11.820;2023-07-22T09:18:21;35.47;46.58
67722;SHT31;58309;45.292;11.820;2023-07-22T09:20:47;34.58;48.92
67722;SHT31;58309;45.292;11.820;2023-07-22T09:23:13;36.11;46.64
67722;SHT31;58309;45.292;11.820;2023-07-22T09:25:41;35.93;46.54
67722;SHT31;58309;45.292;11.820;2023-07-22T09:28:08;36.64;44.85
67722;SHT31;58309;45.292;11.820;2023-07-22T09:30:36;34.09;49.28
67722;SHT31;58309;45.292;11.820;2023-07-22T09:33:04;35.23;47.21
67722;SHT31;58309;45.292;11.820;2023-07-22T09:35:50;34.77;47.70
67722;SHT31;58309;45.292;11.820;2023-07-22T09:38:23;34.94;48.95
67722;SHT31;58309;45.292;11.820;2023-07-22T09:40:49;35.96;48.82
67722;SHT31;58309;45.292;11.820;2023-07-22T09:43:15;36.95;45.00
67722;SHT31;58309;45.292;11.820;2023-07-22T09:45:40;37.31;45.49
67722;SHT31;58309;45.292;11.820;2023-07-22T09:48:09;37.82;42.34
67722;SHT31;58309;45.292;11.820;2023-07-22T09:50:36;38.21;43.03
67722;SHT31;58309;45.292;11.820;2023-07-22T09:53:01;37.00;45.50
67722;SHT31;58309;45.292;11.820;2023-07-22T09:55:30;37.82;44.37
67722;SHT31;58309;45.292;11.820;2023-07-22T09:57:58;38.42;43.64
67722;SHT31;58309;45.292;11.820;2023-07-22T10:00:25;38.65;43.51
67722;SHT31;58309;45.292;11.820;2023-07-22T10:02:56;36.28;44.66
67722;SHT31;58309;45.292;11.820;2023-07-22T10:05:21;36.76;45.14
67722;SHT31;58309;45.292;11.820;2023-07-22T10:07:55;37.65;45.24
67722;SHT31;58309;45.292;11.820;2023-07-22T10:10:23;38.37;41.86
67722;SHT31;58309;45.292;11.820;2023-07-22T10:12:50;36.37;43.74
67722;SHT31;58309;45.292;11.820;2023-07-22T10:15:16;38.02;44.92
67722;SHT31;58309;45.292;11.820;2023-07-22T10:17:45;37.56;44.57
67722;SHT31;58309;45.292;11.820;2023-07-22T10:20:11;37.41;43.44
67722;SHT31;58309;45.292;11.820;2023-07-22T10:22:44;37.92;43.72
67722;SHT31;58309;45.292;11.820;2023-07-22T10:25:11;37.22;43.65
67722;SHT31;58309;45.292;11.820;2023-07-22T10:27:38;37.43;44.52
67722;SHT31;58309;45.292;11.820;2023-07-22T10:30:08;38.28;41.94
67722;SHT31;58309;45.292;11.820;2023-07-22T10:32:36;36.90;43.15
67722;SHT31;58309;45.292;11.820;2023-07-22T10:35:02;37.63;43.83
67722;SHT31;58309;45.292;11.820;2023-07-22T10:37:31;38.65;42.05
67722;SHT31;58309;45.292;11.820;2023-07-22T10:40:01;37.95;43.20
67722;SHT31;58309;45.292;11.820;2023-07-22T10:42:41;36.49;45.27
67722;SHT31;58309;45.292;11.820;2023-07-22T10:45:23;37.53;42.92
67722;SHT31;58309;45.292;11.820;2023-07-22T10:48:00;37.36;44.10
67722;SHT31;58309;45.292;11.820;2023-07-22T10:50:38;36.17;46.44
67722;SHT31;58309;45.292;11.820;2023-07-22T10:53:04;35.88;44.83
67722;SHT31;58309;45.292;11.820;2023-07-22T10:55:30;35.49;46.96
67722;SHT31;58309;45.292;11.820;2023-07-22T10:58:03;35.30;44.93
67722;SHT31;58309;45.292;11.820;2023-07-22T11:00:30;34.57;47.60
67722;SHT31;58309;45.292;11.820;2023-07-22T11:03:10;34.28;49.27
67722;SHT31;58309;45.292;11.820;2023-07-22T11:05:50;33.60;49.12
67722;SHT31;58309;45.292;11.820;2023-07-22T11:08:16;33.35;50.26
67722;SHT31;58309;45.292;11.820;2023-07-22T11:10:54;33.25;51.23
67722;SHT31;58309;45.292;11.820;2023-07-22T11:13:28;33.04;50.91
67722;SHT31;58309;45.292;11.820;2023-07-22T11:15:58;32.60;53.52
67722;SHT31;58309;45.292;11.820;2023-07-22T11:18:37;32.80;51.07
67722;SHT31;58309;45.292;11.820;2023-07-22T11:21:09;33.49;51.02
67722;SHT31;58309;45.292;11.820;2023-07-22T11:23:34;34.00;49.55
67722;SHT31;58309;45.292;11.820;2023-07-22T11:26:01;35.02;47.86
67722;SHT31;58309;45.292;11.820;2023-07-22T11:28:27;35.29;48.35
67722;SHT31;58309;45.292;11.820;2023-07-22T11:30:53;34.98;49.30
67722;SHT31;58309;45.292;11.820;2023-07-22T11:33:18;34.71;47.83
67722;SHT31;58309;45.292;11.820;2023-07-22T11:35:44;33.38;49.41
67722;SHT31;58309;45.292;11.820;2023-07-22T11:38:12;32.88;51.41
67722;SHT31;58309;45.292;11.820;2023-07-22T11:40:37;32.00;55.05
67722;SHT31;58309;45.292;11.820;2023-07-22T11:43:03;31.73;54.03
67722;SHT31;58309;45.292;11.820;2023-07-22T11:45:29;31.32;54.43
67722;SHT31;58309;45.292;11.820;2023-07-22T11:47:55;31.21;55.27
67722;SHT31;58309;45.292;11.820;2023-07-22T11:50:33;30.49;56.41
67722;SHT31;58309;45.292;11.820;2023-07-22T11:52:59;29.19;59.62
67722;SHT31;58309;45.292;11.820;2023-07-22T11:55:25;28.99;59.03
67722;SHT31;58309;45.292;11.820;2023-07-22T11:57:54;28.65;60.61
67722;SHT31;58309;45.292;11.820;2023-07-22T12:00:20;28.17;61.68
67722;SHT31;58309;45.292;11.820;2023-07-22T12:02:46;27.52;64.03
67722;SHT31;58309;45.292;11.820;2023-07-22T12:05:19;27.39;64.76
67722;SHT31;58309;45.292;11.820;2023-07-22T12:07:45;27.19;64.90
67722;SHT31;58309;45.292;11.820;2023-07-22T12:10:10;27.05;65.90
67722;SHT31;58309;45.292;11.820;2023-07-22T12:12:44;26.77;68.09
67722;SHT31;58309;45.292;11.820;2023-07-22T12:15:19;26.48;69.23
67722;SHT31;58309;45.292;11.820;2023-07-22T12:20:18;26.26;70.12
67722;SHT31;58309;45.292;11.820;2023-07-22T12:22:43;25.92;70.49
67722;SHT31;58309;45.292;11.820;2023-07-22T12:25:09;25.85;70.07
67722;SHT31;58309;45.292;11.820;2023-07-22T12:27:36;25.96;69.38
67722;SHT31;58309;45.292;11.820;2023-07-22T12:30:01;25.96;68.51
67722;SHT31;58309;45.292;11.820;2023-07-22T12:32:28;25.86;69.73
67722;SHT31;58309;45.292;11.820;2023-07-22T12:34:53;25.46;68.33
67722;SHT31;58309;45.292;11.820;2023-07-22T12:37:19;25.25;69.47
67722;SHT31;58309;45.292;11.820;2023-07-22T12:39:45;25.41;70.71
67722;SHT31;58309;45.292;11.820;2023-07-22T12:42:10;25.32;69.42
67722;SHT31;58309;45.292;11.820;2023-07-22T12:44:36;25.11;70.36
67722;SHT31;58309;45.292;11.820;2023-07-22T12:47:01;25.07;71.99
67722;SHT31;58309;45.292;11.820;2023-07-22T12:49:27;25.10;72.32
67722;SHT31;58309;45.292;11.820;2023-07-22T12:51:52;25.11;72.66
67722;SHT31;58309;45.292;11.820;2023-07-22T12:54:18;25.48;72.09
67722;SHT31;58309;45.292;11.820;2023-07-22T12:56:43;25.72;71.44
67722;SHT31;58309;45.292;11.820;2023-07-22T12:59:09;25.92;70.24
67722;SHT31;58309;45.292;11.820;2023-07-22T13:01:35;25.81;69.94
67722;SHT31;58309;45.292;11.820;2023-07-22T13:04:04;25.72;70.67
67722;SHT31;58309;45.292;11.820;2023-07-22T13:06:29;25.72;71.68
67722;SHT31;58309;45.292;11.820;2023-07-22T13:08:55;25.75;70.55
67722;SHT31;58309;45.292;11.820;2023-07-22T13:11:20;25.63;72.33
67722;SHT31;58309;45.292;11.820;2023-07-22T13:13:46;25.65;71.01
67722;SHT31;58309;45.292;11.820;2023-07-22T13:16:11;25.57;71.94
67722;SHT31;58309;45.292;11.820;2023-07-22T13:18:36;25.85;71.69
67722;SHT31;58309;45.292;11.820;2023-07-22T13:21:02;26.70;69.42
67722;SHT31;58309;45.292;11.820;2023-07-22T13:23:28;27.06;67.19
67722;SHT31;58309;45.292;11.820;2023-07-22T13:25:53;27.45;66.76
67722;SHT31;58309;45.292;11.820;2023-07-22T13:28:18;27.36;66.10
67722;SHT31;58309;45.292;11.820;2023-07-22T13:30:44;27.69;64.66
67722;SHT31;58309;45.292;11.820;2023-07-22T13:33:09;27.62;65.15
67722;SHT31;58309;45.292;11.820;2023-07-22T13:35:35;27.70;63.94
67722;SHT31;58309;45.292;11.820;2023-07-22T13:38:00;27.73;65.81
67722;SHT31;58309;45.292;11.820;2023-07-22T13:40:26;27.96;63.15
67722;SHT31;58309;45.292;11.820;2023-07-22T13:42:51;27.67;64.25
67722;SHT31;58309;45.292;11.820;2023-07-22T13:45:17;27.94;64.44
67722;SHT31;58309;45.292;11.820;2023-07-22T13:47:42;28.04;63.73
67722;SHT31;58309;45.292;11.820;2023-07-22T13:50:08;28.17;63.87
67722;SHT31;58309;45.292;11.820;2023-07-22T13:52:33;28.00;63.41
67722;SHT31;58309;45.292;11.820;2023-07-22T13:54:59;28.17;65.05
67722;SHT31;58309;45.292;11.820;2023-07-22T13:57:24;28.18;64.46
67722;SHT31;58309;45.292;11.820;2023-07-22T13:59:50;28.01;63.99
67722;SHT31;58309;45.292;11.820;2023-07-22T14:02:15;28.27;62.52
67722;SHT31;58309;45.292;11.820;2023-07-22T14:04:41;28.47;63.61
67722;SHT31;58309;45.292;11.820;2023-07-22T14:07:06;28.52;61.85
67722;SHT31;58309;45.292;11.820;2023-07-22T14:09:32;28.25;63.11
67722;SHT31;58309;45.292;11.820;2023-07-22T14:11:57;28.18;62.26
67722;SHT31;58309;45.292;11.820;2023-07-22T14:14:23;28.58;63.02
67722;SHT31;58309;45.292;11.820;2023-07-22T14:16:54;28.79;62.50
67722;SHT31;58309;45.292;11.820;2023-07-22T14:19:21;29.10;61.56
67722;SHT31;58309;45.292;11.820;2023-07-22T14:21:46;28.73;61.98
67722;SHT31;58309;45.292;11.820;2023-07-22T14:24:12;28.88;61.92
67722;SHT31;58309;45.292;11.820;2023-07-22T14:26:37;28.48;60.89
67722;SHT31;58309;45.292;11.820;2023-07-22T14:29:03;28.88;63.62
67722;SHT31;58309;45.292;11.820;2023-07-22T14:31:28;29.12;61.40
67722;SHT31;58309;45.292;11.820;2023-07-22T14:33:53;29.16;61.62
67722;SHT31;58309;45.292;11.820;2023-07-22T14:36:19;29.17;61.50
67722;SHT31;58309;45.292;11.820;2023-07-22T14:38:44;29.17;59.61
67722;SHT31;58309;45.292;11.820;2023-07-22T14:41:10;29.51;60.84
67722;SHT31;58309;45.292;11.820;2023-07-22T14:43:36;29.80;58.22
67722;SHT31;58309;45.292;11.820;2023-07-22T14:46:01;30.01;58.72
67722;SHT31;58309;45.292;11.820;2023-07-22T14:48:27;30.06;58.01
67722;SHT31;58309;45.292;11.820;2023-07-22T14:50:52;29.95;58.15
67722;SHT31;58309;45.292;11.820;2023-07-22T14:53:18;29.86;57.60
67722;SHT31;58309;45.292;11.820;2023-07-22T14:55:44;30.29;57.14
67722;SHT31;58309;45.292;11.820;2023-07-22T14:58:09;30.44;57.14
67722;SHT31;58309;45.292;11.820;2023-07-22T15:00:35;30.26;57.19
67722;SHT31;58309;45.292;11.820;2023-07-22T15:03:00;29.91;57.62
67722;SHT31;58309;45.292;11.820;2023-07-22T15:05:26;30.06;56.31
67722;SHT31;58309;45.292;11.820;2023-07-22T15:07:52;30.19;56.78
67722;SHT31;58309;45.292;11.820;2023-07-22T15:10:17;30.16;57.34
67722;SHT31;58309;45.292;11.820;2023-07-22T15:12:42;30.40;55.80